Time;durP1;ratioP1;P1;durP2;ratioP2;P2;SDS_P1;SDS_P2;PMS_P1;PMS_P2;Temp;Humidity;BMP_temperature;BMP_pressure;BME280_temperature;BME280_humidity;BME280_pressure;Samples;Min_cycle;Max_cycle;Signal;HPM_P1;HPM_P2
2022/03/04 00:01:35;;;;;;;18.15;9.57;;;;;;;1.52;100.00;95154.88;4993837;28;20026;-63
2022/03/04 00:04:00;;;;;;;20.20;10.77;;;;;;;1.47;100.00;95165.25;4977000;28;20037;-64
2022/03/04 00:06:29;;;;;;;18.10;9.63;;;;;;;1.44;100.00;95158.56;4991646;28;20492;-63
2022/03/04 00:08:57;;;;;;;20.73;10.23;;;;;;;1.43;100.00;95172.78;4991733;28;20113;-63
2022/03/04 00:11:35;;;;;;;16.95;8.90;;;;;;;1.35;100.00;95167.72;4976817;28;20050;-63
2022/03/04 00:14:02;;;;;;;16.92;9.18;;;;;;;1.29;100.00;95171.16;4976903;28;20030;-62
2022/03/04 00:16:28;;;;;;;18.83;10.07;;;;;;;1.20;100.00;95180.34;4976519;28;20035;-64
2022/03/04 00:19:10;;;;;;;19.48;9.07;;;;;;;1.21;100.00;95177.47;4975408;28;20023;-64
2022/03/04 00:21:58;;;;;;;15.13;8.30;;;;;;;1.15;100.00;95176.47;4976544;28;20042;-64
2022/03/04 00:24:24;;;;;;;14.95;8.82;;;;;;;1.03;100.00;95179.91;4973590;28;20118;-64
2022/03/04 00:26:50;;;;;;;17.17;9.60;;;;;;;0.89;100.00;95188.84;4980340;28;20031;-64
2022/03/04 00:29:16;;;;;;;16.67;9.43;;;;;;;0.78;100.00;95183.16;4975221;28;20029;-63
2022/03/04 00:31:47;;;;;;;16.58;9.57;;;;;;;0.64;100.00;95184.13;4976482;28;20031;-63
2022/03/04 00:34:18;;;;;;;16.45;9.07;;;;;;;0.49;100.00;95184.31;4976351;28;20034;-63
2022/03/04 00:36:49;;;;;;;16.23;8.93;;;;;;;0.35;100.00;95182.69;4976234;28;20054;-63
2022/03/04 00:39:15;;;;;;;15.80;8.55;;;;;;;0.24;100.00;95184.06;4991290;28;20113;-62
2022/03/04 00:41:41;;;;;;;15.82;8.85;;;;;;;0.14;100.00;95181.00;4976311;28;20490;-63
2022/03/04 00:44:06;;;;;;;14.57;8.15;;;;;;;0.03;100.00;95180.75;4976223;28;20054;-63
2022/03/04 00:46:34;;;;;;;17.73;8.65;;;;;;;-0.11;100.00;95185.13;4991072;28;20114;-62
2022/03/04 00:49:00;;;;;;;16.83;8.65;;;;;;;-0.28;100.00;95179.41;4976152;28;20484;-63
2022/03/04 00:51:28;;;;;;;15.98;8.50;;;;;;;-0.44;100.00;95175.25;4976038;28;20112;-63
2022/03/04 00:53:54;;;;;;;13.23;8.15;;;;;;;-0.61;100.00;95171.34;4976108;28;20059;-62
2022/03/04 00:56:20;;;;;;;18.70;7.65;;;;;;;-0.74;100.00;95172.06;4974571;28;20050;-62
2022/03/04 00:58:48;;;;;;;14.90;8.52;;;;;;;-0.85;100.00;95162.09;4975334;28;20054;-64
2022/03/04 01:03:59;;;;;;;17.92;8.90;;;;;;;-1.03;100.00;95145.97;4995357;28;20400;-62
2022/03/04 01:06:25;;;;;;;18.00;8.63;;;;;;;-1.09;100.00;95149.34;4995073;28;20031;-64
2022/03/04 01:08:50;;;;;;;17.13;8.02;;;;;;;-1.17;100.00;95140.63;5010299;28;20026;-63
2022/03/04 01:11:15;;;;;;;14.00;8.00;;;;;;;-1.17;100.00;95131.94;5010160;28;20030;-63
2022/03/04 01:13:50;;;;;;;14.07;8.30;;;;;;;-1.22;100.00;95127.22;4995412;28;20559;-63
2022/03/04 01:16:18;;;;;;;14.52;8.10;;;;;;;-1.22;100.00;95114.09;4995034;28;20026;-62
2022/03/04 01:18:46;;;;;;;16.50;8.50;;;;;;;-1.23;100.00;95106.41;4995104;28;20033;-65
2022/03/04 01:21:15;;;;;;;17.30;8.63;;;;;;;-1.20;100.00;95104.19;5010589;28;20034;-63
2022/03/04 01:23:43;;;;;;;15.60;8.55;;;;;;;-1.17;100.00;95098.56;5010045;28;20034;-64
2022/03/04 01:26:15;;;;;;;15.43;8.43;;;;;;;-1.09;100.00;95091.53;4994763;28;20473;-64
2022/03/04 01:28:43;;;;;;;16.10;8.50;;;;;;;-1.07;100.00;95095.59;4994803;28;20069;-64
2022/03/04 01:31:10;;;;;;;13.57;8.15;;;;;;;-1.13;100.00;95098.19;4994673;28;20030;-63
2022/03/04 01:33:48;;;;;;;16.05;8.65;;;;;;;-1.22;100.00;95100.94;4994794;28;20082;-64
2022/03/04 01:36:16;;;;;;;17.38;9.20;;;;;;;-1.29;100.00;95112.44;4993370;28;20018;-64
2022/03/04 01:38:54;;;;;;;15.85;8.70;;;;;;;-1.39;100.00;95115.38;5009616;28;20034;-64
2022/03/04 01:41:19;;;;;;;15.10;8.38;;;;;;;-1.48;100.00;95117.34;4994523;28;20058;-64
2022/03/04 01:43:47;;;;;;;13.98;7.78;;;;;;;-1.62;100.00;95112.97;5009607;28;20046;-64
2022/03/04 01:46:18;;;;;;;14.77;8.35;;;;;;;-1.71;100.00;95108.84;4994576;28;20061;-64
2022/03/04 01:48:45;;;;;;;16.13;7.70;;;;;;;-1.75;100.00;95111.03;4993144;28;20049;-64
2022/03/04 01:51:15;;;;;;;16.48;8.35;;;;;;;-1.56;100.00;95095.63;4994387;28;20033;-64
2022/03/04 01:53:49;;;;;;;15.20;8.38;;;;;;;-1.39;100.00;95090.94;4994309;28;20022;-64
2022/03/04 01:56:18;;;;;;;13.13;7.43;;;;;;;-1.26;100.00;95094.47;4994268;28;20042;-63
2022/03/04 01:58:46;;;;;;;16.33;7.55;;;;;;;-1.14;100.00;95101.81;4994101;28;20082;-62
2022/03/04 02:01:14;;;;;;;16.13;8.23;;;;;;;-1.10;100.00;95110.94;4991221;28;20369;-62
2022/03/04 02:03:40;;;;;;;13.50;7.72;;;;;;;-1.03;100.00;95115.25;4976654;28;20026;-63
2022/03/04 02:06:08;;;;;;;14.68;7.18;;;;;;;-0.89;100.00;95130.09;4974603;28;20030;-61
2022/03/04 02:08:37;;;;;;;15.00;7.15;;;;;;;-0.77;100.00;95140.88;4987387;28;20054;-61
2022/03/04 02:11:27;;;;;;;12.98;7.60;;;;;;;-0.71;100.00;95149.81;4973976;28;20382;-62
2022/03/04 02:13:53;;;;;;;16.70;7.68;;;;;;;-0.61;100.00;95151.09;4974456;28;20110;-62
2022/03/04 02:16:38;;;;;;;14.70;8.02;;;;;;;-0.56;100.00;95160.22;4974310;28;20062;-62
2022/03/04 02:19:03;;;;;;;16.35;7.60;;;;;;;-0.57;100.00;95169.13;4974487;28;20034;-62
2022/03/04 02:21:33;;;;;;;14.45;8.55;;;;;;;-0.65;100.00;95164.84;4974347;28;20532;-64
2022/03/04 02:23:59;;;;;;;13.98;7.55;;;;;;;-0.78;100.00;95170.00;4974225;28;20037;-62
2022/03/04 02:26:25;;;;;;;14.20;7.43;;;;;;;-0.95;100.00;95175.56;4973937;28;20070;-62
2022/03/04 02:28:53;;;;;;;14.90;8.15;;;;;;;-1.11;100.00;95180.28;4974365;28;20026;-61
2022/03/04 02:31:20;;;;;;;18.38;8.55;;;;;;;-1.30;100.00;95173.88;4973360;28;20042;-63
2022/03/04 02:33:47;;;;;;;13.27;8.20;;;;;;;-1.46;100.00;95174.94;4989154;28;20029;-61
2022/03/04 02:36:15;;;;;;;16.23;8.60;;;;;;;-1.61;100.00;95166.31;4973972;28;20027;-63
2022/03/04 02:38:44;;;;;;;16.85;8.30;;;;;;;-1.74;100.00;95156.47;4974012;28;20058;-62
2022/03/04 02:41:09;;;;;;;14.50;8.18;;;;;;;-1.85;100.00;95149.09;4973924;28;20492;-63
2022/03/04 02:43:34;;;;;;;18.13;8.30;;;;;;;-1.95;100.00;95143.34;4989030;28;20118;-62
2022/03/04 02:46:00;;;;;;;17.83;8.82;;;;;;;-1.94;100.00;95145.78;4972726;28;20026;-61
2022/03/04 02:48:26;;;;;;;13.70;7.78;;;;;;;-1.90;100.00;95133.91;4973859;28;20019;-62
2022/03/04 02:50:51;;;;;;;12.52;7.22;;;;;;;-1.90;100.00;95138.34;4973822;28;20031;-63
2022/03/04 02:53:17;;;;;;;15.38;8.57;;;;;;;-1.91;100.00;95131.47;4974134;28;20449;-62
2022/03/04 02:55:48;;;;;;;21.90;8.50;;;;;;;-1.91;100.00;95113.91;4974108;28;20142;-63
2022/03/04 02:58:20;;;;;;;14.60;7.35;;;;;;;-1.83;100.00;95123.47;4973564;28;20054;-63
2022/03/04 03:00:45;;;;;;;13.20;7.72;;;;;;;-1.82;100.00;95107.53;4980481;28;20022;-63
2022/03/04 03:03:10;;;;;;;14.63;8.25;;;;;;;-1.79;100.00;95108.97;4979815;28;20113;-63
2022/03/04 03:05:36;;;;;;;15.50;8.68;;;;;;;-1.76;100.00;95098.09;4973743;28;20101;-62
2022/03/04 03:08:04;;;;;;;12.57;7.70;;;;;;;-1.72;100.00;95101.16;4973888;28;20070;-63
2022/03/04 03:10:31;;;;;;;12.55;7.57;;;;;;;-1.71;100.00;95098.34;4973507;28;20109;-65
2022/03/04 03:12:56;;;;;;;15.35;7.57;;;;;;;-1.67;100.00;95101.41;4973568;28;20034;-65
2022/03/04 03:15:25;;;;;;;17.92;7.90;;;;;;;-1.65;100.00;95102.03;4973722;28;20382;-64
2022/03/04 03:17:50;;;;;;;15.30;7.97;;;;;;;-1.60;100.00;95105.72;4972196;28;20522;-65
2022/03/04 03:20:16;;;;;;;14.15;7.93;;;;;;;-1.54;100.00;95112.00;4973474;28;20054;-67
2022/03/04 03:22:43;;;;;;;15.85;8.10;;;;;;;-1.50;100.00;95121.97;4973389;28;20142;-64
2022/03/04 03:25:09;;;;;;;12.70;7.18;;;;;;;-1.51;100.00;95109.84;4973689;28;20023;-64
2022/03/04 03:27:37;;;;;;;14.63;7.53;;;;;;;-1.56;100.00;95116.66;4973280;28;20397;-64
2022/03/04 03:30:09;;;;;;;15.60;8.18;;;;;;;-1.63;100.00;95126.28;4975499;28;20114;-64
2022/03/04 03:32:46;;;;;;;16.63;8.07;;;;;;;-1.73;100.00;95116.09;4973349;28;20093;-64
2022/03/04 03:35:11;;;;;;;17.42;7.97;;;;;;;-1.83;100.00;95116.41;4972000;28;20397;-64
2022/03/04 03:37:58;;;;;;;17.48;7.40;;;;;;;-1.94;100.00;95109.03;4988104;28;20037;-65
2022/03/04 03:40:23;;;;;;;16.77;8.73;;;;;;;-2.01;100.00;95102.91;4973354;28;20027;-64
2022/03/04 03:42:49;;;;;;;15.00;8.07;;;;;;;-2.11;100.00;95097.16;4988297;28;20437;-64
2022/03/04 03:45:22;;;;;;;14.77;8.18;;;;;;;-2.20;100.00;95083.31;4973266;28;20029;-64
2022/03/04 03:47:54;;;;;;;14.02;8.00;;;;;;;-2.26;100.00;95088.53;4973050;28;20050;-64
2022/03/04 03:50:20;;;;;;;13.25;8.05;;;;;;;-2.31;100.00;95078.56;4973232;28;20378;-64
2022/03/04 03:52:53;;;;;;;15.63;8.52;;;;;;;-2.37;100.00;95076.69;4973220;28;20035;-64
2022/03/04 03:55:20;;;;;;;13.35;8.07;;;;;;;-2.41;100.00;95068.38;4973096;28;20078;-63
2022/03/04 03:57:48;;;;;;;15.60;8.63;;;;;;;-2.45;100.00;95061.06;4972077;28;20061;-64
2022/03/04 04:00:17;;;;;;;15.35;7.90;;;;;;;-2.45;100.00;95064.50;4975482;28;20033;-64
2022/03/04 04:02:58;;;;;;;14.68;7.85;;;;;;;-2.34;100.00;95063.19;4982963;28;20096;-64
2022/03/04 04:05:26;;;;;;;13.88;7.43;;;;;;;-2.20;100.00;95072.00;4973131;28;20026;-64
2022/03/04 04:07:52;;;;;;;15.00;7.43;;;;;;;-2.14;100.00;95074.72;4986652;28;20482;-64
2022/03/04 04:10:17;;;;;;;16.08;7.97;;;;;;;-2.09;100.00;95080.22;4978278;28;20034;-65
2022/03/04 04:12:49;;;;;;;12.55;7.60;;;;;;;-2.10;100.00;95088.28;4975461;28;20038;-64
2022/03/04 04:15:20;;;;;;;14.02;7.80;;;;;;;-2.09;100.00;95095.13;4983193;28;20433;-63
2022/03/04 04:18:10;;;;;;;14.35;8.07;;;;;;;-2.12;100.00;95095.53;4991250;28;20026;-63
2022/03/04 04:20:36;;;;;;;13.93;7.43;;;;;;;-2.20;100.00;95100.88;4992853;28;20062;-63
2022/03/04 04:23:01;;;;;;;17.27;7.97;;;;;;;-2.29;100.00;95100.16;4983661;28;20452;-63
2022/03/04 04:25:27;;;;;;;14.23;7.90;;;;;;;-2.36;100.00;95102.75;4972956;28;20386;-60
2022/03/04 04:27:52;;;;;;;13.25;7.78;;;;;;;-2.45;100.00;95113.53;4980020;28;20030;-61
2022/03/04 04:30:20;;;;;;;16.38;7.97;;;;;;;-2.55;100.00;95103.31;4978827;28;20022;-61
2022/03/04 04:32:48;;;;;;;15.55;8.48;;;;;;;-2.66;100.00;95101.16;4988670;28;20023;-61
2022/03/04 04:35:16;;;;;;;12.52;7.03;;;;;;;-2.78;100.00;95092.94;4976280;28;20081;-61
2022/03/04 04:37:50;;;;;;;15.43;7.90;;;;;;;-2.83;100.00;95102.34;4975045;28;20023;-62
2022/03/04 04:40:18;;;;;;;14.80;7.60;;;;;;;-2.81;100.00;95095.94;4976425;28;20461;-62
2022/03/04 04:42:44;;;;;;;14.80;7.75;;;;;;;-2.82;100.00;95098.72;4981195;28;20481;-64
2022/03/04 04:45:10;;;;;;;12.98;7.15;;;;;;;-2.85;100.00;95086.78;4991846;28;20033;-61
2022/03/04 04:47:35;;;;;;;14.35;7.78;;;;;;;-2.90;100.00;95088.34;4995597;28;20113;-61
2022/03/04 04:50:01;;;;;;;13.32;7.35;;;;;;;-2.97;100.00;95083.00;4995545;28;20956;-63
2022/03/04 04:52:29;;;;;;;15.02;7.82;;;;;;;-3.03;100.00;95084.56;4995587;28;20049;-63
2022/03/04 04:54:55;;;;;;;17.08;8.50;;;;;;;-3.08;100.00;95086.91;4994122;28;20034;-61
2022/03/04 04:57:20;;;;;;;13.57;7.90;;;;;;;-3.08;100.00;95086.91;4995740;28;20034;-65
2022/03/04 04:59:46;;;;;;;16.30;8.18;;;;;;;-3.08;100.00;95089.50;4994292;28;20034;-66
2022/03/04 05:02:11;;;;;;;14.63;7.50;;;;;;;-3.11;100.00;95092.50;4995436;28;20029;-65
2022/03/04 05:04:36;;;;;;;14.23;8.23;;;;;;;-3.11;100.00;95094.31;4995220;28;20489;-66
2022/03/04 05:07:02;;;;;;;15.07;8.10;;;;;;;-3.14;100.00;95087.63;4994873;28;20041;-66
2022/03/04 05:09:31;;;;;;;15.38;7.97;;;;;;;-3.12;100.00;95090.06;5010189;28;20033;-66
2022/03/04 05:11:56;;;;;;;15.70;8.38;;;;;;;-3.11;100.00;95092.50;4990160;28;20042;-65
2022/03/04 05:14:22;;;;;;;14.73;8.00;;;;;;;-3.07;100.00;95093.75;4966424;28;20398;-66
2022/03/04 05:16:53;;;;;;;19.67;7.88;;;;;;;-2.96;100.00;95085.44;4975457;28;20027;-66
2022/03/04 05:19:18;;;;;;;12.25;7.72;;;;;;;-2.86;100.00;95092.22;4987487;28;20065;-65
2022/03/04 05:21:47;;;;;;;19.80;8.68;;;;;;;-2.79;100.00;95093.94;4993817;28;20022;-64
2022/03/04 05:24:18;;;;;;;13.25;7.70;;;;;;;-2.75;100.00;95100.44;4994945;28;20548;-64
2022/03/04 05:26:56;;;;;;;16.98;7.95;;;;;;;-2.70;100.00;95110.41;4974690;28;20031;-65
2022/03/04 05:29:21;;;;;;;15.25;8.10;;;;;;;-2.70;100.00;95110.41;4989935;28;20022;-62
2022/03/04 05:31:49;;;;;;;15.43;8.20;;;;;;;-2.72;100.00;95109.75;5010014;28;20057;-62
2022/03/04 05:34:15;;;;;;;17.77;8.52;;;;;;;-2.76;100.00;95108.50;4994721;28;20034;-62
2022/03/04 05:36:40;;;;;;;15.57;8.63;;;;;;;-2.82;100.00;95107.44;4994580;28;20026;-61
2022/03/04 05:39:09;;;;;;;15.30;8.30;;;;;;;-2.80;100.00;95110.66;4994638;28;20702;-62
2022/03/04 05:41:37;;;;;;;17.80;8.30;;;;;;;-2.79;100.00;95114.09;4993450;28;20481;-62
2022/03/04 05:44:04;;;;;;;16.90;8.05;;;;;;;-2.81;100.00;95113.47;4993732;28;20030;-61
2022/03/04 05:46:29;;;;;;;16.88;8.68;;;;;;;-2.82;100.00;95119.69;4982366;28;20485;-62
2022/03/04 05:48:55;;;;;;;15.52;8.35;;;;;;;-2.86;100.00;95116.63;4993992;28;20062;-61
2022/03/04 05:51:23;;;;;;;14.52;8.10;;;;;;;-2.82;100.00;95112.66;4994208;28;20105;-62
2022/03/04 05:53:52;;;;;;;15.93;7.65;;;;;;;-2.82;100.00;95117.06;4994441;28;20029;-64
2022/03/04 05:56:17;;;;;;;14.75;7.97;;;;;;;-2.79;100.00;95128.03;4993026;28;20049;-64
2022/03/04 05:58:43;;;;;;;15.43;7.63;;;;;;;-2.65;100.00;95127.19;5008413;28;20050;-63
2022/03/04 06:01:08;;;;;;;16.98;7.22;;;;;;;-2.54;100.00;95130.34;4994231;28;20080;-64
2022/03/04 06:03:35;;;;;;;11.50;7.03;;;;;;;-2.42;100.00;95134.13;4994417;28;20030;-64
2022/03/04 06:06:06;;;;;;;14.85;7.63;;;;;;;-2.28;100.00;95137.72;4994212;28;20381;-62
2022/03/04 06:08:32;;;;;;;16.42;7.88;;;;;;;-2.19;100.00;95150.53;4994355;28;20114;-64
2022/03/04 06:10:57;;;;;;;13.05;7.28;;;;;;;-2.20;100.00;95151.53;4993959;28;20038;-64
2022/03/04 06:13:29;;;;;;;13.85;7.07;;;;;;;-2.09;100.00;95166.00;4986384;28;20033;-64
2022/03/04 06:16:00;;;;;;;16.52;7.65;;;;;;;-2.06;100.00;95171.72;4974442;28;20585;-63
2022/03/04 06:18:26;;;;;;;15.10;8.40;;;;;;;-2.05;100.00;95169.91;4974392;28;20065;-64
2022/03/04 06:20:52;;;;;;;21.75;7.63;;;;;;;-2.10;100.00;95182.75;4974416;28;20422;-63
2022/03/04 06:23:21;;;;;;;16.20;7.63;;;;;;;-2.19;100.00;95183.84;4982708;28;20022;-64
2022/03/04 06:25:50;;;;;;;20.20;8.07;;;;;;;-2.35;100.00;95196.19;4989539;28;20014;-64
2022/03/04 06:28:15;;;;;;;15.30;7.72;;;;;;;-2.49;100.00;95194.38;4986011;28;20516;-63
2022/03/04 06:30:41;;;;;;;19.13;8.52;;;;;;;-2.51;100.00;95203.41;4981057;28;20069;-63
2022/03/04 06:36:00;;;;;;;13.98;7.35;;;;;;;-2.61;100.00;95203.66;4978078;28;20516;-64
2022/03/04 06:38:26;;;;;;;17.88;7.80;;;;;;;-2.63;100.00;95203.03;4978310;28;20027;-64
2022/03/04 06:40:54;;;;;;;13.88;7.45;;;;;;;-2.72;100.00;95199.69;4989446;28;20122;-64
2022/03/04 06:43:19;;;;;;;18.00;8.65;;;;;;;-2.79;100.00;95208.47;4973507;28;20054;-64
2022/03/04 06:45:46;;;;;;;15.07;8.43;;;;;;;-2.82;100.00;95204.41;4977787;28;20049;-63
2022/03/04 06:48:13;;;;;;;13.45;7.50;;;;;;;-2.81;100.00;95208.66;4986461;28;20014;-64
2022/03/04 06:50:42;;;;;;;16.83;8.43;;;;;;;-2.87;100.00;95211.97;4982497;28;20355;-64
2022/03/04 06:53:07;;;;;;;17.25;8.77;;;;;;;-2.85;100.00;95203.94;4981715;28;20034;-64
2022/03/04 06:55:33;;;;;;;14.77;8.10;;;;;;;-2.72;100.00;95188.38;4981018;28;20030;-63
2022/03/04 06:57:58;;;;;;;15.70;8.93;;;;;;;-2.54;100.00;95177.56;4985095;28;20497;-63
2022/03/04 07:00:27;;;;;;;19.23;8.63;;;;;;;-2.39;100.00;95167.84;4985333;28;20093;-64
2022/03/04 07:02:54;;;;;;;15.88;8.68;;;;;;;-2.17;100.00;95166.09;4982033;28;20392;-64
2022/03/04 07:05:22;;;;;;;13.80;8.60;;;;;;;-1.94;100.00;95165.97;4984296;28;20105;-64
2022/03/04 07:07:54;;;;;;;17.35;8.80;;;;;;;-1.72;100.00;95169.44;4987258;28;20072;-60
2022/03/04 07:10:23;;;;;;;19.10;9.07;;;;;;;-1.55;100.00;95171.63;4974383;28;20450;-64
2022/03/04 07:12:49;;;;;;;16.83;8.82;;;;;;;-1.43;100.00;95177.19;4987996;28;20026;-62
2022/03/04 07:15:15;;;;;;;17.15;8.00;;;;;;;-1.31;100.00;95188.00;4992975;28;20034;-64
2022/03/04 07:17:43;;;;;;;19.00;8.35;;;;;;;-1.18;100.00;95204.72;4986273;28;20114;-61
2022/03/04 07:20:09;;;;;;;16.13;8.02;;;;;;;-1.10;100.00;95213.44;4973187;28;20050;-61
2022/03/04 07:22:42;;;;;;;14.70;8.07;;;;;;;-1.00;100.00;95212.13;4978590;28;20026;-61
2022/03/04 07:25:15;;;;;;;;;;;;;;;-0.91;100.00;95231.19;4993706;28;20034;-61
2022/03/04 07:27:41;;;;;;;14.50;7.43;;;;;;;-0.81;100.00;95246.66;4992591;28;19909;-63
2022/03/04 07:30:10;;;;;;;17.13;8.43;;;;;;;-0.72;100.00;95251.59;4992861;28;20030;-64
2022/03/04 07:32:36;;;;;;;13.43;7.53;;;;;;;-0.56;100.00;95258.38;4974989;28;20034;-62
2022/03/04 07:35:07;;;;;;;16.70;8.50;;;;;;;-0.43;100.00;95265.56;4985707;28;20492;-62
2022/03/04 07:37:34;;;;;;;17.05;8.63;;;;;;;-0.28;100.00;95268.91;4992701;28;20038;-63
2022/03/04 07:39:59;;;;;;;25.55;10.52;;;;;;;-0.06;100.00;95272.25;4992800;28;20441;-64
2022/03/04 07:42:24;;;;;;;15.68;8.20;;;;;;;0.09;100.00;95285.28;4976017;28;20027;-62
2022/03/04 07:44:50;;;;;;;17.65;9.38;;;;;;;0.18;100.00;95300.75;4977890;28;20023;-63
2022/03/04 07:47:25;;;;;;;15.43;8.07;;;;;;;0.33;100.00;95305.09;4972986;28;20420;-67
2022/03/04 07:49:50;;;;;;;18.00;8.07;;;;;;;0.46;100.00;95318.31;4973177;28;20033;-64
2022/03/04 07:52:31;;;;;;;17.52;8.93;;;;;;;0.65;100.00;95320.22;4988275;28;20114;-64
2022/03/04 07:55:01;;;;;;;16.17;8.55;;;;;;;0.94;100.00;95329.63;4973165;28;20496;-67
2022/03/04 07:57:26;;;;;;;19.63;9.30;;;;;;;0.93;100.00;95349.09;4988221;28;20030;-67
2022/03/04 07:59:55;;;;;;;17.20;9.82;;;;;;;1.05;100.00;95350.16;4936676;28;20038;-67
2022/03/04 08:02:20;;;;;;;15.60;8.95;;;;;;;1.27;100.00;95364.00;4978228;28;20062;-67
2022/03/04 08:04:48;;;;;;;17.38;9.68;;;;;;;1.44;100.00;95362.63;4971890;28;20046;-64
2022/03/04 08:07:13;;;;;;;14.32;8.90;;;;;;;1.52;100.00;95372.19;4973173;28;20066;-64
2022/03/04 08:09:40;;;;;;;22.85;9.70;;;;;;;1.67;100.00;95383.34;4976984;28;20062;-64
2022/03/04 08:12:06;;;;;;;16.48;8.93;;;;;;;1.78;100.00;95381.13;4986201;28;20065;-63
2022/03/04 08:14:34;;;;;;;17.00;9.70;;;;;;;1.56;100.00;95394.50;4979824;28;20027;-64
2022/03/04 08:16:59;;;;;;;20.90;9.80;;;;;;;1.55;100.00;95403.44;4976572;28;20026;-63
2022/03/04 08:19:24;;;;;;;18.35;9.07;;;;;;;1.54;100.00;95407.09;4976671;28;20053;-64
2022/03/04 08:21:50;;;;;;;18.98;8.93;;;;;;;1.82;100.00;95411.38;4976737;28;20077;-64
2022/03/04 08:24:15;;;;;;;17.45;9.60;;;;;;;1.84;100.00;95412.81;4976515;28;20037;-64
2022/03/04 08:26:41;;;;;;;18.10;9.55;;;;;;;2.03;100.00;95414.63;4976486;28;20030;-64
2022/03/04 08:29:14;;;;;;;18.55;9.48;;;;;;;2.19;100.00;95420.53;4976417;28;20034;-64
2022/03/04 08:31:51;;;;;;;16.25;9.55;;;;;;;2.42;100.00;95425.41;4991229;28;20122;-64
2022/03/04 08:34:16;;;;;;;17.20;9.82;;;;;;;2.53;100.00;95432.69;4975261;28;20417;-64
2022/03/04 08:36:41;;;;;;;17.08;10.15;;;;;;;2.77;100.00;95432.03;4984095;28;20033;-63
2022/03/04 08:39:07;;;;;;;14.93;9.05;;;;;;;2.91;100.00;95432.81;4976361;28;20027;-64
2022/03/04 08:41:35;;;;;;;17.77;10.02;;;;;;;3.25;100.00;95434.28;4976237;28;20114;-65
2022/03/04 08:44:24;;;;;;;16.83;9.65;;;;;;;3.38;100.00;95439.56;4976087;28;20109;-65
2022/03/04 08:46:59;;;;;;;18.25;9.88;;;;;;;3.41;100.00;95444.41;4975459;28;20086;-65
2022/03/04 08:49:24;;;;;;;16.98;9.10;;;;;;;3.77;100.00;95448.28;4976209;28;20497;-66
2022/03/04 08:51:52;;;;;;;18.83;10.82;;;;;;;4.05;100.00;95448.72;4976016;28;20080;-66
2022/03/04 08:54:23;;;;;;;20.83;9.13;;;;;;;4.19;100.00;95460.03;4976449;28;20061;-66
2022/03/04 08:56:51;;;;;;;17.58;9.85;;;;;;;4.30;100.00;95472.59;4974579;28;20390;-66
2022/03/04 08:59:16;;;;;;;26.15;10.77;;;;;;;4.58;100.00;95466.84;4975815;28;20054;-66
2022/03/04 09:01:42;;;;;;;27.48;13.25;;;;;;;4.94;100.00;95465.28;4975779;28;20027;-65
2022/03/04 09:04:07;;;;;;;18.95;10.65;;;;;;;5.15;99.47;95469.34;4975904;28;20033;-66
2022/03/04 09:06:35;;;;;;;22.30;11.15;;;;;;;4.89;95.89;95478.41;4975601;28;20149;-66
2022/03/04 09:09:03;;;;;;;30.95;15.13;;;;;;;5.07;96.20;95475.75;4975727;28;20058;-66
2022/03/04 09:11:28;;;;;;;21.20;11.05;;;;;;;5.19;95.11;95478.50;4996122;28;20029;-66
2022/03/04 09:13:54;;;;;;;22.75;11.38;;;;;;;5.37;95.17;95478.50;4985768;28;20113;-66
2022/03/04 09:16:25;;;;;;;38.15;17.60;;;;;;;5.43;93.35;95488.25;4990168;28;20031;-66
2022/03/04 09:18:51;;;;;;;20.35;11.13;;;;;;;5.37;92.47;95486.47;4990209;28;20041;-65
2022/03/04 09:21:19;;;;;;;21.17;11.80;;;;;;;5.42;90.86;95485.78;4975503;28;20035;-66
2022/03/04 09:23:47;;;;;;;21.45;11.77;;;;;;;5.42;92.31;95499.88;4975580;28;20504;-66
2022/03/04 09:26:16;;;;;;;20.73;12.05;;;;;;;5.71;92.77;95492.19;4974202;28;20110;-66
2022/03/04 09:28:41;;;;;;;19.55;10.80;;;;;;;5.61;90.84;95489.25;4975396;28;20053;-65
2022/03/04 09:31:07;;;;;;;20.50;11.32;;;;;;;5.59;90.25;95507.25;4974293;28;20522;-66
2022/03/04 09:33:35;;;;;;;19.33;11.23;;;;;;;5.34;88.63;95510.00;4975244;28;20474;-66
2022/03/04 09:36:01;;;;;;;21.60;12.05;;;;;;;5.42;89.56;95502.53;4990159;28;20046;-65
2022/03/04 09:38:27;;;;;;;20.90;11.25;;;;;;;5.72;90.16;95505.25;4983728;28;20026;-64
2022/03/04 09:40:55;;;;;;;18.40;10.85;;;;;;;5.99;89.54;95511.06;4993388;28;20027;-66
2022/03/04 09:43:26;;;;;;;22.13;12.10;;;;;;;5.91;87.79;95503.41;4994477;28;20109;-65
2022/03/04 09:45:51;;;;;;;20.38;11.20;;;;;;;6.31;89.43;95502.84;4986183;28;20018;-65
2022/03/04 09:48:26;;;;;;;19.65;11.70;;;;;;;6.39;86.68;95516.59;4987582;28;20126;-66
2022/03/04 09:50:51;;;;;;;21.00;11.57;;;;;;;6.41;86.36;95515.59;4994423;28;20030;-66
2022/03/04 09:53:19;;;;;;;20.63;11.60;;;;;;;6.84;85.06;95515.31;4983868;28;20430;-66
2022/03/04 09:55:57;;;;;;;20.83;11.38;;;;;;;7.26;84.01;95516.78;4981614;28;20022;-66
2022/03/04 09:58:25;;;;;;;20.70;11.38;;;;;;;7.39;82.45;95523.75;4983701;28;20101;-66
2022/03/04 10:00:53;;;;;;;18.98;11.23;;;;;;;7.48;81.50;95516.97;4980337;28;20078;-66
2022/03/04 10:03:40;;;;;;;19.90;11.00;;;;;;;7.64;78.76;95526.13;4987178;28;20026;-66
2022/03/04 10:06:06;;;;;;;20.50;11.73;;;;;;;7.75;77.76;95533.28;4992241;28;20470;-66
2022/03/04 10:08:46;;;;;;;20.55;12.18;;;;;;;7.94;76.59;95522.47;4985319;28;20117;-66
2022/03/04 10:11:33;;;;;;;20.05;11.50;;;;;;;8.18;75.58;95528.50;4982608;28;20058;-66
2022/03/04 10:14:01;;;;;;;20.33;11.63;;;;;;;8.27;75.64;95519.88;4997563;28;20482;-65
2022/03/04 10:16:36;;;;;;;21.67;12.20;;;;;;;8.29;73.17;95525.78;4998371;28;20031;-66
2022/03/04 10:19:15;;;;;;;19.38;11.93;;;;;;;8.05;72.63;95521.59;4985786;28;20069;-66
2022/03/04 10:21:58;;;;;;;23.65;11.95;;;;;;;8.10;71.71;95527.84;4998925;28;20046;-67
2022/03/04 10:24:33;;;;;;;22.73;12.35;;;;;;;8.13;72.61;95532.69;4987501;28;20449;-66
2022/03/04 10:27:02;;;;;;;21.90;12.40;;;;;;;8.35;73.53;95529.38;4986791;28;20038;-64
2022/03/04 10:29:30;;;;;;;19.92;12.07;;;;;;;8.36;71.25;95531.03;4972836;28;20018;-63
2022/03/04 10:32:16;;;;;;;18.98;12.30;;;;;;;8.23;69.75;95533.94;4983260;28;20505;-65
2022/03/04 10:35:08;;;;;;;19.60;11.15;;;;;;;8.12;68.26;95535.59;4986258;28;20434;-65
2022/03/04 10:37:56;;;;;;;20.45;12.13;;;;;;;8.06;69.07;95528.56;4978513;28;20026;-64
2022/03/04 10:40:22;;;;;;;19.33;11.50;;;;;;;8.02;68.66;95530.06;4985643;28;20029;-64
2022/03/04 10:42:55;;;;;;;18.17;11.23;;;;;;;8.01;68.39;95526.59;4976202;28;20027;-64
2022/03/04 10:45:35;;;;;;;18.00;12.02;;;;;;;8.06;67.65;95528.56;4946342;28;20039;-64
2022/03/04 10:48:20;;;;;;;20.35;11.18;;;;;;;8.34;69.34;95528.56;4995821;28;20081;-64
2022/03/04 10:50:46;;;;;;;17.83;11.05;;;;;;;8.43;68.36;95529.00;4976873;28;20461;-64
2022/03/04 10:53:21;;;;;;;21.52;12.50;;;;;;;8.65;68.71;95529.09;4981290;28;20429;-64
2022/03/04 10:55:57;;;;;;;19.13;11.60;;;;;;;8.84;68.22;95524.34;4981326;28;20148;-65
2022/03/04 10:58:26;;;;;;;18.60;12.00;;;;;;;8.88;67.92;95531.63;5012821;23;20058;-64
2022/03/04 11:01:00;;;;;;;16.88;11.35;;;;;;;9.18;65.64;95525.94;4970242;28;20477;-63
2022/03/04 11:03:27;;;;;;;18.00;11.05;;;;;;;9.29;65.52;95521.56;4971246;28;20113;-63
2022/03/04 11:05:55;;;;;;;19.30;11.63;;;;;;;9.09;63.46;95513.22;4970781;28;20026;-63
2022/03/04 11:08:22;;;;;;;21.42;11.65;;;;;;;9.20;64.33;95510.47;4969454;28;20022;-63
2022/03/04 11:10:48;;;;;;;19.10;11.90;;;;;;;9.03;63.79;95516.91;4971420;28;20393;-63
2022/03/04 11:13:14;;;;;;;20.08;11.77;;;;;;;9.35;63.71;95511.75;4969754;28;20022;-63
2022/03/04 11:15:41;;;;;;;19.55;11.57;;;;;;;9.36;64.66;95508.81;4970567;28;20211;-66
2022/03/04 11:18:09;;;;;;;24.63;12.80;;;;;;;9.52;64.48;95515.97;4972542;28;20081;-65
2022/03/04 11:20:35;;;;;;;20.67;12.93;;;;;;;9.28;62.13;95515.41;4988576;28;20030;-64
2022/03/04 11:23:05;;;;;;;23.13;12.05;;;;;;;9.42;62.96;95507.00;4988559;28;20389;-64
2022/03/04 11:25:37;;;;;;;19.70;11.40;;;;;;;9.51;63.62;95511.69;4973537;28;20057;-64
2022/03/04 11:28:18;;;;;;;20.10;11.65;;;;;;;9.48;63.04;95509.53;4973546;28;20030;-64
2022/03/04 11:30:46;;;;;;;19.70;11.98;;;;;;;9.88;63.01;95506.56;4973636;28;20390;-64
2022/03/04 11:33:30;;;;;;;17.58;11.32;;;;;;;9.59;59.99;95499.78;4973472;28;20027;-64